Time;durP1;ratioP1;P1;durP2;ratioP2;P2;SDS_P1;SDS_P2;PMS_P1;PMS_P2;Temp;Humidity;BMP_temperature;BMP_pressure;BME280_temperature;BME280_humidity;BME280_pressure;Samples;Min_cycle;Max_cycle;Signal;HPM_P1;HPM_P2
2023/05/22 00:02:14;;;;;;;6.85;4.05;;;17.90;96.70;;;;;;4946165;28;20466;-68
2023/05/22 00:04:43;;;;;;;4.75;4.22;;;17.90;96.70;;;;;;4944927;28;20525;-68
2023/05/22 00:07:11;;;;;;;6.32;3.88;;;18.00;96.70;;;;;;4943080;28;20236;-68
2023/05/22 00:09:40;;;;;;;6.82;4.25;;;18.10;96.70;;;;;;4958076;28;20192;-68
2023/05/22 00:12:08;;;;;;;4.82;3.60;;;18.00;96.70;;;;;;4943938;28;20044;-68
2023/05/22 00:14:38;;;;;;;4.97;3.90;;;17.90;96.70;;;;;;4939677;28;20101;-68
2023/05/22 00:17:06;;;;;;;5.45;4.25;;;17.90;96.70;;;;;;4963210;28;20052;-68
2023/05/22 00:19:35;;;;;;;6.35;3.72;;;17.90;96.70;;;;;;4945647;28;20054;-68
2023/05/22 00:22:05;;;;;;;5.22;3.47;;;17.80;96.70;;;;;;4960736;28;20070;-68
2023/05/22 00:24:33;;;;;;;5.55;3.70;;;17.70;96.70;;;;;;4965117;28;20057;-68
2023/05/22 00:27:01;;;;;;;5.53;4.10;;;17.70;96.70;;;;;;4966822;28;20050;-68
2023/05/22 00:29:30;;;;;;;5.82;4.30;;;17.70;96.70;;;;;;4951295;28;20444;-68
2023/05/22 00:31:59;;;;;;;4.70;4.20;;;17.80;96.70;;;;;;4965279;28;20046;-68
2023/05/22 00:38:36;;;;;;;5.32;3.70;;;17.80;96.70;;;;;;4961488;28;20441;-68
2023/05/22 00:41:05;;;;;;;6.68;4.22;;;17.60;96.70;;;;;;4946247;28;20505;-68
2023/05/22 00:43:33;;;;;;;6.03;4.30;;;17.70;96.70;;;;;;4959958;28;20038;-69
2023/05/22 00:46:02;;;;;;;5.93;4.45;;;17.70;96.70;;;;;;4965911;28;20133;-70
2023/05/22 00:49:20;;;;;;;5.30;3.75;;;17.50;96.70;;;;;;4964649;28;20049;-70
2023/05/22 00:51:50;;;;;;;5.90;4.00;;;17.50;96.70;;;;;;4943389;28;20144;-70
2023/05/22 00:54:18;;;;;;;8.05;4.38;;;17.40;96.70;;;;;;4956651;28;20085;-69
2023/05/22 00:56:47;;;;;;;6.72;3.92;;;17.40;96.70;;;;;;4964786;28;20039;-69
2023/05/22 00:59:16;;;;;;;5.55;4.25;;;17.30;96.70;;;;;;4956247;28;20043;-70
2023/05/22 01:01:46;;;;;;;5.53;4.30;;;17.40;96.70;;;;;;4964479;28;20047;-70
2023/05/22 01:04:14;;;;;;;4.40;4.00;;;17.40;96.70;;;;;;4963981;28;20047;-70
2023/05/22 03:44:54;;;;;;;8.70;4.35;;;16.70;96.70;;;;;;4948981;28;20065;-69
2023/05/22 03:47:25;;;;;;;4.50;3.63;;;16.60;96.70;;;;;;4935206;29;20511;-70
2023/05/22 03:49:53;;;;;;;6.32;3.30;;;16.50;96.70;;;;;;4933652;29;20058;-70
2023/05/22 03:52:22;;;;;;;6.05;3.42;;;16.40;96.70;;;;;;4955664;28;20051;-70
2023/05/22 04:41:21;;;;;;;4.97;3.20;;;16.10;96.70;;;;;;4923260;29;20061;-70
2023/05/22 04:43:51;;;;;;;4.18;3.58;;;16.10;96.70;;;;;;4948655;28;20386;-70
2023/05/22 04:46:20;;;;;;;5.70;3.28;;;16.10;96.70;;;;;;4946286;28;20054;-70
2023/05/22 04:48:48;;;;;;;8.13;3.88;;;16.10;96.70;;;;;;4928604;29;20793;-70
2023/05/22 04:51:17;;;;;;;7.65;3.45;;;16.10;96.70;;;;;;4961140;28;20564;-70
2023/05/22 04:53:48;;;;;;;4.45;3.30;;;16.10;96.70;;;;;;4974787;28;20046;-70
2023/05/22 04:56:18;;;;;;;3.72;3.22;;;16.10;96.70;;;;;;4946346;28;20046;-69
2023/05/22 04:59:04;;;;;;;4.25;2.60;;;16.10;96.70;;;;;;4942776;28;20098;-70
2023/05/22 05:01:34;;;;;;;7.10;3.35;;;16.10;96.70;;;;;;4949350;28;20808;-70
2023/05/22 05:04:03;;;;;;;5.60;2.95;;;16.10;96.70;;;;;;4960744;28;20054;-70
2023/05/22 05:06:31;;;;;;;3.70;2.67;;;16.10;96.70;;;;;;4944031;28;20420;-70
2023/05/22 05:09:00;;;;;;;4.45;2.72;;;16.20;96.70;;;;;;4952656;28;20075;-70
2023/05/22 05:11:30;;;;;;;3.30;2.60;;;16.10;96.70;;;;;;4940033;28;20039;-70
2023/05/22 05:13:59;;;;;;;5.40;2.97;;;16.10;96.70;;;;;;4973362;28;20055;-70
2023/05/22 05:16:28;;;;;;;3.08;2.78;;;16.30;96.70;;;;;;4946548;28;20704;-70
2023/05/22 05:18:57;;;;;;;6.00;3.30;;;16.30;96.70;;;;;;4950170;28;20170;-70
2023/05/22 05:21:26;;;;;;;3.95;2.58;;;16.40;96.70;;;;;;4944039;28;20055;-71
2023/05/22 05:23:59;;;;;;;4.13;3.42;;;16.50;96.70;;;;;;4947001;28;20552;-71
2023/05/22 05:26:29;;;;;;;33.17;27.02;;;16.70;96.70;;;;;;4959441;28;20061;-72
2023/05/22 05:28:58;;;;;;;15.30;12.40;;;16.70;96.70;;;;;;4946880;28;20074;-70
2023/05/22 05:31:34;;;;;;;;;;;16.80;96.70;;;;;;4948785;28;20059;-70
2023/05/22 05:34:29;;;;;;;6.60;5.97;;;16.80;96.70;;;;;;4953155;28;19933;-70
2023/05/22 05:37:17;;;;;;;5.13;4.63;;;16.90;96.70;;;;;;4944997;28;20050;-70
2023/05/22 05:39:46;;;;;;;6.63;4.10;;;16.90;96.70;;;;;;4962956;28;21144;-71
2023/05/22 05:42:16;;;;;;;8.20;3.53;;;17.00;96.70;;;;;;4928165;29;20051;-71
2023/05/22 05:44:47;;;;;;;4.38;3.38;;;16.90;96.70;;;;;;4952604;28;20577;-72
2023/05/22 05:47:16;;;;;;;7.13;3.75;;;17.00;96.70;;;;;;4951376;28;20430;-71
2023/05/22 05:49:45;;;;;;;6.22;3.92;;;17.00;96.70;;;;;;4976373;28;20413;-72
2023/05/22 05:52:15;;;;;;;4.53;3.40;;;17.10;96.70;;;;;;4976288;28;20079;-72
2023/05/22 05:54:46;;;;;;;5.55;4.18;;;17.20;96.70;;;;;;4951963;28;20142;-72
2023/05/22 05:57:20;;;;;;;6.70;4.75;;;17.30;96.70;;;;;;4959795;28;20062;-72
2023/05/22 05:59:50;;;;;;;8.68;4.35;;;17.20;96.70;;;;;;4968390;28;20051;-72
2023/05/22 06:02:37;;;;;;;7.82;4.78;;;17.30;96.70;;;;;;4946329;28;20242;-72
2023/05/22 06:05:12;;;;;;;7.13;4.38;;;17.40;96.70;;;;;;4945659;28;20057;-72
2023/05/22 06:07:41;;;;;;;6.82;4.50;;;17.40;96.70;;;;;;4968619;28;20098;-70
2023/05/22 06:10:12;;;;;;;6.88;4.63;;;17.50;96.70;;;;;;4951949;28;20039;-70
2023/05/22 06:12:59;;;;;;;6.68;4.70;;;17.50;96.70;;;;;;4963469;28;20050;-71
2023/05/22 06:15:29;;;;;;;7.95;4.25;;;17.60;96.70;;;;;;4961232;28;20101;-70
2023/05/22 06:17:57;;;;;;;5.60;4.28;;;17.60;96.70;;;;;;4974898;28;20161;-71
2023/05/22 06:20:26;;;;;;;6.82;4.50;;;17.70;96.70;;;;;;4933055;28;20162;-71
2023/05/22 06:22:54;;;;;;;8.57;4.63;;;17.70;96.70;;;;;;4942337;28;20067;-70
2023/05/22 06:25:24;;;;;;;6.78;4.80;;;17.80;96.70;;;;;;4944593;28;20363;-70
2023/05/22 06:27:53;;;;;;;7.88;5.00;;;17.90;96.70;;;;;;4942854;28;20418;-69
2023/05/22 06:30:23;;;;;;;4.47;3.97;;;18.00;96.70;;;;;;4935790;29;20050;-69
2023/05/22 06:33:09;;;;;;;5.63;5.00;;;18.10;96.70;;;;;;4937070;28;20055;-69
2023/05/22 06:35:39;;;;;;;5.72;4.55;;;18.20;96.70;;;;;;4950723;28;20080;-69
2023/05/22 06:38:08;;;;;;;8.75;5.80;;;18.20;96.70;;;;;;4945313;28;20513;-69
2023/05/22 06:40:38;;;;;;;6.45;5.47;;;18.30;96.70;;;;;;4955020;28;20275;-69
2023/05/22 06:43:14;;;;;;;;;;;18.30;96.70;;;;;;4936867;28;20063;-70
2023/05/22 06:45:52;;;;;;;6.13;4.90;;;18.40;96.70;;;;;;4942693;28;20117;-69
2023/05/22 06:48:23;;;;;;;6.38;5.75;;;18.40;96.70;;;;;;4952554;28;20871;-71
2023/05/22 06:51:04;;;;;;;6.38;5.13;;;18.50;96.70;;;;;;4949329;28;20050;-70
2023/05/22 06:53:33;;;;;;;6.43;5.65;;;18.60;96.70;;;;;;4939808;28;20768;-69
2023/05/22 06:56:02;;;;;;;6.53;5.43;;;18.60;96.70;;;;;;4959911;28;20043;-69
2023/05/22 06:58:53;;;;;;;10.13;5.68;;;18.60;96.70;;;;;;4929029;28;20051;-70
2023/05/22 07:01:30;;;;;;;6.07;5.47;;;18.70;96.70;;;;;;4943107;28;20062;-70
2023/05/22 07:04:10;;;;;;;6.22;5.30;;;18.70;96.70;;;;;;4953545;28;20053;-69
2023/05/22 07:07:05;;;;;;;6.82;5.57;;;18.70;96.70;;;;;;4955494;28;20442;-69
2023/05/22 07:09:33;;;;;;;5.85;5.25;;;18.80;96.70;;;;;;4935200;28;20055;-71
2023/05/22 07:12:04;;;;;;;7.75;5.32;;;18.90;96.70;;;;;;4972912;28;20574;-71
2023/05/22 07:14:33;;;;;;;8.82;5.45;;;18.90;96.70;;;;;;4963415;28;20449;-70
2023/05/22 07:17:04;;;;;;;8.05;5.25;;;19.00;96.70;;;;;;4973642;28;20057;-70
2023/05/22 07:19:39;;;;;;;;;;;19.10;96.70;;;;;;4945957;28;20071;-69
2023/05/22 07:22:08;;;;;;;5.82;5.20;;;19.10;96.70;;;;;;4948775;28;19926;-70
2023/05/22 07:24:39;;;;;;;7.28;5.30;;;19.10;96.70;;;;;;4944741;28;20047;-71
2023/05/22 07:27:08;;;;;;;9.13;5.60;;;19.10;96.70;;;;;;4974782;28;20527;-69
2023/05/22 07:29:38;;;;;;;7.68;5.28;;;19.20;96.70;;;;;;4975180;28;20043;-70
2023/05/22 07:32:09;;;;;;;5.50;5.00;;;19.20;96.70;;;;;;4946149;28;20047;-70
2023/05/22 07:34:38;;;;;;;6.07;4.93;;;19.20;96.70;;;;;;4954281;28;20075;-70
2023/05/22 07:37:13;;;;;;;8.00;5.05;;;19.30;96.70;;;;;;4958608;28;20057;-69
2023/05/22 07:39:45;;;;;;;5.65;5.05;;;19.30;96.70;;;;;;4957016;28;20466;-69
2023/05/22 07:42:15;;;;;;;8.00;5.20;;;19.50;96.70;;;;;;4946070;28;20593;-71
2023/05/22 07:44:49;;;;;;;6.53;4.95;;;19.70;96.70;;;;;;4971155;28;20046;-71
2023/05/22 07:47:21;;;;;;;5.57;4.85;;;19.80;96.70;;;;;;4939618;28;20051;-71
2023/05/22 07:49:50;;;;;;;9.20;5.88;;;20.00;96.70;;;;;;4955186;28;20145;-70
2023/05/22 07:52:20;;;;;;;6.40;5.80;;;20.10;96.70;;;;;;4935251;28;20043;-71
2023/05/22 07:54:50;;;;;;;6.68;5.20;;;20.10;96.70;;;;;;4966789;28;20070;-71
2023/05/22 07:57:19;;;;;;;5.90;4.97;;;20.20;96.70;;;;;;4950969;28;20145;-71
2023/05/22 07:59:48;;;;;;;6.53;5.25;;;20.20;96.70;;;;;;4963262;28;20069;-71
2023/05/22 08:02:17;;;;;;;6.32;5.05;;;20.20;96.70;;;;;;4979573;28;20258;-71
2023/05/22 08:04:47;;;;;;;7.82;5.45;;;20.30;96.70;;;;;;4982315;28;20582;-71
2023/05/22 08:07:15;;;;;;;5.50;4.97;;;20.40;96.70;;;;;;4980999;28;20046;-71
2023/05/22 08:09:45;;;;;;;7.78;5.32;;;20.50;96.70;;;;;;4937640;28;20058;-71
2023/05/22 08:12:13;;;;;;;8.10;4.95;;;20.60;96.70;;;;;;4963039;28;20043;-71
2023/05/22 08:14:42;;;;;;;4.82;4.35;;;20.70;96.70;;;;;;4978752;28;20717;-69
2023/05/22 08:17:10;;;;;;;6.78;5.32;;;20.80;96.70;;;;;;4952233;28;20042;-69
2023/05/22 08:19:38;;;;;;;6.20;5.18;;;21.00;96.70;;;;;;4981139;28;20045;-70
2023/05/22 08:22:09;;;;;;;6.78;4.95;;;21.00;96.70;;;;;;4967554;28;20057;-71
2023/05/22 08:24:37;;;;;;;5.97;4.97;;;21.10;96.70;;;;;;4980982;28;21167;-71
2023/05/22 08:27:06;;;;;;;5.68;4.70;;;21.20;96.70;;;;;;4962391;28;20043;-71
2023/05/22 08:29:35;;;;;;;6.93;5.22;;;21.30;96.70;;;;;;4974416;28;20042;-71
2023/05/22 08:32:04;;;;;;;5.53;4.80;;;21.40;96.70;;;;;;4980564;28;20124;-71
2023/05/22 08:34:33;;;;;;;6.25;4.82;;;21.50;96.70;;;;;;4981836;28;20050;-71
2023/05/22 08:37:01;;;;;;;8.80;5.80;;;21.70;96.70;;;;;;4965591;28;20049;-71
2023/05/22 08:39:31;;;;;;;7.25;5.05;;;21.80;96.70;;;;;;4951146;28;20854;-71
2023/05/22 08:42:01;;;;;;;7.97;5.30;;;22.00;96.70;;;;;;4983209;28;20038;-71
2023/05/22 08:44:30;;;;;;;7.63;5.68;;;22.10;96.70;;;;;;4965681;28;20054;-69
2023/05/22 08:47:02;;;;;;;5.88;5.15;;;22.30;96.70;;;;;;4981995;28;20070;-69
2023/05/22 08:49:31;;;;;;;6.10;5.50;;;22.20;96.70;;;;;;4958926;28;20157;-70
2023/05/22 08:52:05;;;;;;;9.90;5.68;;;22.40;96.70;;;;;;4951728;28;20066;-69
2023/05/22 08:54:39;;;;;;;6.22;5.60;;;22.50;96.70;;;;;;4968579;28;20046;-69
2023/05/22 08:57:08;;;;;;;8.15;5.30;;;22.40;96.70;;;;;;4956051;28;20042;-69
2023/05/22 08:59:39;;;;;;;6.28;5.38;;;22.50;96.70;;;;;;4982565;28;20580;-71
2023/05/22 09:02:08;;;;;;;6.43;5.25;;;22.80;96.70;;;;;;4959865;28;20050;-71
2023/05/22 09:04:38;;;;;;;6.97;5.20;;;23.00;96.70;;;;;;4959995;28;20054;-71
2023/05/22 09:07:07;;;;;;;5.18;4.68;;;23.00;96.70;;;;;;4964949;28;20065;-71
2023/05/22 09:09:38;;;;;;;8.30;4.78;;;22.90;96.70;;;;;;4968635;28;20046;-71
2023/05/22 09:12:08;;;;;;;8.55;5.60;;;23.20;96.70;;;;;;4948361;28;20050;-70
2023/05/22 09:14:40;;;;;;;7.65;5.13;;;23.30;96.70;;;;;;4965966;28;20043;-69
2023/05/22 09:17:13;;;;;;;5.78;4.63;;;23.30;96.70;;;;;;4965230;28;20545;-69
2023/05/22 09:19:43;;;;;;;6.68;5.03;;;23.40;96.70;;;;;;4947073;28;20058;-69
2023/05/22 09:22:12;;;;;;;7.90;4.80;;;23.40;96.70;;;;;;4966983;28;20049;-69
2023/05/22 09:24:46;;;;;;;7.18;4.40;;;23.60;96.70;;;;;;4963923;28;20043;-69
2023/05/22 09:27:14;;;;;;;7.18;4.85;;;23.80;96.70;;;;;;4956310;28;20096;-69
2023/05/22 09:29:50;;;;;;;5.35;4.85;;;23.90;96.70;;;;;;4977507;28;20070;-70
2023/05/22 09:32:18;;;;;;;5.80;4.47;;;24.00;96.70;;;;;;4959484;28;20074;-70
2023/05/22 09:34:47;;;;;;;6.32;5.15;;;24.00;96.70;;;;;;4964738;28;20054;-70
2023/05/22 09:37:17;;;;;;;6.30;4.43;;;24.00;96.70;;;;;;4933132;28;20469;-70
2023/05/22 09:39:50;;;;;;;5.00;4.50;;;24.10;96.70;;;;;;4970057;28;20046;-71
2023/05/22 09:42:18;;;;;;;5.18;4.10;;;24.20;96.70;;;;;;4970991;28;20053;-71
2023/05/22 09:44:48;;;;;;;8.63;5.03;;;24.30;96.70;;;;;;4946652;28;20093;-72
2023/05/22 09:47:17;;;;;;;5.47;4.65;;;24.40;96.70;;;;;;4963996;28;20078;-71
2023/05/22 09:49:45;;;;;;;5.47;4.82;;;24.60;96.70;;;;;;4964554;28;20209;-69
2023/05/22 09:52:15;;;;;;;5.40;4.90;;;24.60;96.70;;;;;;4962819;28;20050;-69
2023/05/22 09:54:53;;;;;;;5.65;5.00;;;24.50;96.70;;;;;;4966737;28;20046;-69
2023/05/22 09:57:24;;;;;;;8.65;4.88;;;24.70;96.70;;;;;;4967808;28;20055;-70
2023/05/22 09:59:57;;;;;;;5.28;4.78;;;24.70;96.70;;;;;;4956195;28;20063;-70
2023/05/22 10:02:28;;;;;;;8.23;4.60;;;24.80;96.70;;;;;;4963806;28;20135;-70
2023/05/22 10:04:59;;;;;;;6.93;4.72;;;25.10;96.70;;;;;;4967361;28;20049;-71
2023/05/22 10:07:35;;;;;;;5.78;4.85;;;25.30;96.70;;;;;;4967841;28;20728;-71
2023/05/22 10:10:08;;;;;;;6.30;5.70;;;25.20;96.70;;;;;;4971358;28;20054;-71
2023/05/22 10:12:43;;;;;;;5.55;4.68;;;25.40;96.70;;;;;;4963670;28;20047;-71
2023/05/22 10:15:12;;;;;;;7.97;4.82;;;25.50;96.70;;;;;;4958502;28;20049;-71
2023/05/22 10:17:41;;;;;;;6.53;4.85;;;25.90;96.70;;;;;;4968161;28;20055;-71
2023/05/22 10:20:12;;;;;;;5.70;4.43;;;26.00;96.70;;;;;;4963204;28;20030;-72
2023/05/22 10:22:41;;;;;;;6.80;4.38;;;26.30;96.70;;;;;;4946605;28;20057;-72
2023/05/22 10:25:11;;;;;;;7.20;4.90;;;26.50;96.70;;;;;;4956681;28;20070;-72
2023/05/22 10:27:40;;;;;;;10.00;4.28;;;26.60;96.70;;;;;;4964612;28;20054;-72
2023/05/22 10:30:22;;;;;;;7.22;4.85;;;26.50;96.70;;;;;;4969431;28;20497;-71
2023/05/22 10:33:32;;;;;;;7.82;4.95;;;26.80;96.70;;;;;;4958654;28;20077;-72
2023/05/22 10:36:04;;;;;;;7.43;4.90;;;27.10;96.70;;;;;;4964200;28;20061;-72
2023/05/22 10:38:56;;;;;;;4.32;3.78;;;27.30;96.70;;;;;;4964092;28;20066;-71
2023/05/22 10:41:26;;;;;;;3.90;3.50;;;27.50;96.70;;;;;;4947113;28;20046;-72
2023/05/22 10:43:56;;;;;;;4.90;3.53;;;27.60;96.70;;;;;;4965957;28;20046;-72
2023/05/22 10:46:30;;;;;;;4.32;3.92;;;27.80;96.70;;;;;;4964119;28;20059;-72
2023/05/22 10:49:00;;;;;;;5.05;3.67;;;27.80;96.70;;;;;;4945106;28;20051;-71
2023/05/22 10:51:28;;;;;;;5.13;3.88;;;27.90;96.70;;;;;;4963966;28;20042;-72
2023/05/22 10:53:59;;;;;;;4.68;3.60;;;27.90;96.70;;;;;;4926736;29;20210;-71
2023/05/22 10:56:34;;;;;;;6.63;4.28;;;28.00;96.70;;;;;;4936548;29;20065;-72
2023/05/22 10:59:04;;;;;;;4.65;3.90;;;28.20;96.70;;;;;;4970371;28;20153;-72
2023/05/22 11:01:36;;;;;;;5.68;3.70;;;28.20;96.70;;;;;;4966157;28;20106;-71
2023/05/22 11:04:25;;;;;;;3.47;3.10;;;28.40;96.70;;;;;;4948814;28;20053;-72
2023/05/22 11:07:07;;;;;;;3.83;3.47;;;28.50;96.70;;;;;;4946470;28;20047;-72
2023/05/22 11:09:42;;;;;;;5.97;3.58;;;28.60;96.70;;;;;;4953460;28;20039;-72
2023/05/22 11:12:23;;;;;;;6.03;3.28;;;28.70;96.70;;;;;;4963928;28;20051;-71
2023/05/22 11:14:55;;;;;;;5.22;3.67;;;28.80;96.70;;;;;;4931810;28;20054;-72
2023/05/22 11:17:26;;;;;;;5.05;3.97;;;28.80;96.70;;;;;;4944823;28;20065;-71
2023/05/22 11:20:06;;;;;;;5.05;3.70;;;28.80;96.70;;;;;;4967385;28;20047;-72
2023/05/22 11:22:38;;;;;;;4.47;3.50;;;29.00;96.70;;;;;;4963983;28;20031;-72
2023/05/22 11:25:09;;;;;;;5.35;4.00;;;29.10;96.70;;;;;;4971358;28;20058;-72
2023/05/22 11:27:41;;;;;;;5.28;4.40;;;29.10;96.70;;;;;;4964058;28;20058;-72
2023/05/22 11:30:10;;;;;;;5.38;3.95;;;29.10;96.70;;;;;;4970868;28;20133;-72
2023/05/22 11:32:43;;;;;;;5.68;3.45;;;29.10;96.70;;;;;;4958214;28;20109;-71
2023/05/22 11:35:14;;;;;;;4.30;3.90;;;29.10;96.70;;;;;;4963325;28;20042;-71
2023/05/22 11:37:43;;;;;;;5.82;3.60;;;29.30;96.70;;;;;;4957710;28;20141;-72
2023/05/22 11:40:14;;;;;;;5.97;3.83;;;29.40;96.70;;;;;;4968772;28;20344;-72
2023/05/22 11:42:45;;;;;;;5.07;4.22;;;29.40;96.70;;;;;;4954911;28;20050;-72
2023/05/22 11:45:14;;;;;;;6.65;4.22;;;29.10;96.70;;;;;;4971979;28;20145;-72
2023/05/22 11:47:42;;;;;;;4.90;4.50;;;28.60;96.70;;;;;;4949182;28;20529;-72
2023/05/22 11:50:12;;;;;;;8.43;4.82;;;28.60;96.70;;;;;;4960550;28;20071;-72
2023/05/22 11:52:48;;;;;;;6.75;4.03;;;29.00;96.70;;;;;;4948597;28;20058;-72
2023/05/22 11:55:16;;;;;;;4.47;4.05;;;29.40;96.70;;;;;;4949621;28;20052;-72
2023/05/22 11:57:47;;;;;;;4.63;3.92;;;29.50;96.70;;;;;;4962257;28;20042;-71
2023/05/22 12:00:17;;;;;;;6.60;3.88;;;29.70;96.70;;;;;;4933469;28;20117;-72
2023/05/22 12:02:46;;;;;;;5.05;3.85;;;29.80;96.70;;;;;;4945718;28;20450;-72
2023/05/22 12:05:15;;;;;;;5.90;3.80;;;29.90;96.70;;;;;;4960246;28;20047;-72
2023/05/22 12:07:44;;;;;;;4.10;3.67;;;29.80;96.70;;;;;;4952577;28;20600;-72
2023/05/22 12:10:14;;;;;;;5.20;3.45;;;29.90;96.70;;;;;;4975905;28;20042;-72
2023/05/22 12:12:43;;;;;;;3.88;3.47;;;30.10;96.70;;;;;;4938314;28;20051;-72
2023/05/22 12:15:17;;;;;;;6.18;3.50;;;30.20;96.70;;;;;;4954851;28;20477;-72
2023/05/22 12:17:45;;;;;;;4.18;3.78;;;30.30;96.70;;;;;;4955531;28;20051;-71
2023/05/22 12:20:14;;;;;;;7.78;4.43;;;29.80;96.70;;;;;;4947161;28;20727;-72
2023/05/22 12:22:43;;;;;;;5.57;3.97;;;29.30;96.70;;;;;;4976460;28;20521;-71
2023/05/22 12:25:16;;;;;;;6.95;4.28;;;29.20;96.70;;;;;;4944893;28;20054;-72
2023/05/22 12:27:45;;;;;;;4.60;4.20;;;28.90;96.70;;;;;;4939708;28;20047;-71
2023/05/22 12:30:16;;;;;;;6.15;3.97;;;28.70;96.70;;;;;;4973111;28;20042;-72
2023/05/22 12:32:49;;;;;;;5.07;4.38;;;28.50;96.70;;;;;;4956091;28;20051;-72
2023/05/22 12:35:18;;;;;;;6.70;3.90;;;28.10;96.70;;;;;;4949424;28;20133;-71
2023/05/22 12:37:50;;;;;;;4.43;3.60;;;27.90;96.70;;;;;;4944844;28;20073;-72
2023/05/22 12:40:19;;;;;;;6.15;4.10;;;27.90;96.70;;;;;;4946013;28;20638;-72
2023/05/22 12:42:48;;;;;;;6.25;4.50;;;27.80;96.70;;;;;;4958653;28;20459;-71
2023/05/22 12:45:18;;;;;;;4.90;4.28;;;27.70;96.70;;;;;;4961265;28;20050;-72
2023/05/22 12:47:46;;;;;;;7.72;5.20;;;27.60;96.70;;;;;;4964957;28;20134;-71
2023/05/22 12:50:14;;;;;;;4.63;4.22;;;27.70;96.70;;;;;;4975977;28;20065;-72
2023/05/22 12:52:43;;;;;;;6.95;4.25;;;27.70;96.70;;;;;;4983055;28;20055;-72
2023/05/22 12:55:11;;;;;;;13.68;4.90;;;27.80;96.70;;;;;;4957873;28;20137;-71
2023/05/22 12:57:39;;;;;;;6.65;3.75;;;27.80;96.70;;;;;;4952658;28;20082;-72
2023/05/22 13:00:08;;;;;;;5.85;4.13;;;28.10;96.70;;;;;;4935913;28;20551;-71
2023/05/22 13:02:38;;;;;;;5.78;4.47;;;28.70;96.70;;;;;;4973655;28;20432;-71
2023/05/22 13:05:07;;;;;;;5.07;3.78;;;29.20;96.70;;;;;;4964811;28;20097;-71
2023/05/22 13:07:36;;;;;;;8.60;5.00;;;29.60;96.70;;;;;;4958946;28;20050;-71
2023/05/22 13:10:05;;;;;;;4.22;3.83;;;30.00;96.70;;;;;;4959139;28;20042;-72
2023/05/22 13:12:34;;;;;;;5.70;3.97;;;30.50;96.70;;;;;;4982907;28;20294;-71
2023/05/22 13:15:02;;;;;;;4.80;4.30;;;30.90;96.70;;;;;;4965203;28;20138;-72
2023/05/22 13:17:31;;;;;;;4.50;3.80;;;30.60;96.70;;;;;;4965487;28;20519;-71
2023/05/22 13:20:00;;;;;;;5.70;4.15;;;30.20;96.70;;;;;;4966197;28;20051;-72
2023/05/22 13:22:28;;;;;;;4.88;3.72;;;29.70;96.70;;;;;;4969462;28;20133;-72
2023/05/22 13:24:57;;;;;;;6.65;3.78;;;29.50;96.70;;;;;;4980804;28;20132;-71
2023/05/22 13:27:26;;;;;;;5.53;3.78;;;29.20;96.70;;;;;;4949833;28;20057;-72
2023/05/22 13:29:54;;;;;;;7.25;4.30;;;29.00;96.70;;;;;;4949421;28;20062;-71
2023/05/22 13:32:23;;;;;;;4.00;3.55;;;28.70;96.70;;;;;;4965064;28;20131;-71
2023/05/22 13:34:51;;;;;;;5.22;4.05;;;28.50;96.70;;;;;;4952144;28;20069;-71
2023/05/22 13:37:21;;;;;;;5.80;3.90;;;28.30;96.70;;;;;;4974893;28;20516;-72
2023/05/22 13:39:49;;;;;;;5.03;3.95;;;28.10;96.70;;;;;;4967633;28;20251;-71
2023/05/22 13:42:17;;;;;;;11.52;4.43;;;27.90;96.70;;;;;;4964379;28;20478;-72
2023/05/22 13:44:46;;;;;;;4.47;4.05;;;27.80;96.70;;;;;;4931611;28;20047;-72
2023/05/22 13:47:14;;;;;;;4.65;4.13;;;27.70;96.70;;;;;;4950798;28;20101;-71
2023/05/22 13:49:42;;;;;;;5.95;3.95;;;27.60;96.70;;;;;;4970097;28;20047;-71
2023/05/22 13:52:11;;;;;;;6.32;4.38;;;27.50;96.70;;;;;;4954157;28;20511;-71
2023/05/22 13:54:41;;;;;;;7.85;3.63;;;27.40;96.70;;;;;;4970033;28;20047;-72
2023/05/22 13:57:09;;;;;;;5.45;4.43;;;27.30;96.70;;;;;;4964919;28;20047;-71
2023/05/22 13:59:37;;;;;;;9.98;5.50;;;27.20;96.70;;;;;;4976425;28;20416;-71
2023/05/22 14:02:06;;;;;;;8.43;5.15;;;27.10;96.70;;;;;;4974507;28;20050;-72
2023/05/22 14:04:34;;;;;;;10.13;4.97;;;27.10;96.70;;;;;;4945892;28;20476;-71
2023/05/22 14:07:02;;;;;;;9.73;4.13;;;26.90;96.70;;;;;;4970370;28;20057;-72
2023/05/22 14:09:30;;;;;;;8.35;4.30;;;26.90;96.70;;;;;;4975440;28;20042;-71
2023/05/22 14:12:01;;;;;;;8.05;4.68;;;26.80;96.70;;;;;;4956064;28;20138;-72
2023/05/22 14:14:29;;;;;;;6.05;4.53;;;26.80;96.70;;;;;;4969392;28;20457;-71
2023/05/22 14:16:57;;;;;;;6.18;4.43;;;26.60;96.70;;;;;;4946515;28;20043;-71
2023/05/22 14:19:26;;;;;;;6.05;4.63;;;26.40;96.70;;;;;;4956258;28;20069;-71
2023/05/22 14:21:54;;;;;;;6.97;4.60;;;26.00;96.70;;;;;;4961200;28;20050;-72
2023/05/22 14:24:22;;;;;;;5.72;4.00;;;25.70;96.70;;;;;;4972029;28;20488;-71
2023/05/22 14:26:51;;;;;;;6.70;4.03;;;25.50;96.70;;;;;;4978050;28;20129;-71
2023/05/22 14:29:21;;;;;;;6.97;4.20;;;25.40;96.70;;;;;;4951971;28;20058;-71
2023/05/22 14:31:49;;;;;;;4.88;3.65;;;25.40;96.70;;;;;;4974435;28;20042;-71
2023/05/22 14:34:18;;;;;;;5.13;3.83;;;25.40;96.70;;;;;;4954261;28;20050;-71
2023/05/22 14:36:47;;;;;;;4.25;3.83;;;25.50;96.70;;;;;;4959442;28;20035;-71
2023/05/22 14:39:15;;;;;;;6.15;4.88;;;25.50;96.70;;;;;;4976198;28;20074;-71
2023/05/22 14:41:43;;;;;;;6.75;5.50;;;25.50;96.70;;;;;;4971977;28;20039;-71
2023/05/22 14:44:12;;;;;;;5.80;4.32;;;25.40;96.70;;;;;;4955629;28;20050;-71
2023/05/22 14:46:42;;;;;;;4.18;3.85;;;25.20;96.70;;;;;;4973441;28;20058;-71
2023/05/22 14:49:10;;;;;;;4.80;4.28;;;25.00;96.70;;;;;;4981085;28;20125;-71
2023/05/22 14:51:38;;;;;;;6.15;4.65;;;25.20;96.70;;;;;;4975610;28;20041;-72
2023/05/22 14:54:07;;;;;;;8.10;5.07;;;25.30;96.70;;;;;;4972208;28;20046;-71
2023/05/22 14:56:35;;;;;;;6.60;4.13;;;25.00;96.70;;;;;;4975658;28;20112;-71
2023/05/22 14:59:04;;;;;;;5.63;4.78;;;25.40;96.70;;;;;;4955309;28;20051;-71
2023/05/22 15:01:32;;;;;;;7.85;4.25;;;26.00;96.70;;;;;;4954380;28;20098;-71
2023/05/22 15:04:02;;;;;;;6.45;4.40;;;25.40;96.70;;;;;;4958407;28;20102;-71
2023/05/22 15:06:30;;;;;;;5.95;4.30;;;25.00;96.70;;;;;;4946426;28;20075;-72
2023/05/22 15:08:59;;;;;;;8.63;4.60;;;24.70;96.70;;;;;;4953669;28;20120;-71
2023/05/22 15:11:27;;;;;;;5.40;4.90;;;24.40;96.70;;;;;;4968954;28;20047;-71
2023/05/22 15:13:55;;;;;;;6.60;4.40;;;24.20;96.70;;;;;;4958828;28;20051;-72
2023/05/22 15:16:27;;;;;;;5.05;4.20;;;24.00;96.70;;;;;;4980158;28;20062;-72
2023/05/22 15:18:55;;;;;;;6.53;4.25;;;23.90;96.70;;;;;;4978247;28;20046;-71
2023/05/22 15:21:25;;;;;;;6.53;4.60;;;23.60;96.70;;;;;;4979804;28;20601;-72
2023/05/22 15:23:53;;;;;;;6.05;4.50;;;23.20;96.70;;;;;;4969532;28;20038;-71
2023/05/22 15:26:21;;;;;;;5.25;4.13;;;23.10;96.70;;;;;;4933734;28;20417;-71
2023/05/22 15:28:50;;;;;;;6.50;4.50;;;23.00;96.70;;;;;;4967432;28;20706;-71
2023/05/22 15:31:18;;;;;;;6.70;5.05;;;23.00;96.70;;;;;;4959304;28;20093;-71
2023/05/22 15:33:47;;;;;;;6.75;4.43;;;23.00;96.70;;;;;;4969025;28;20047;-71
2023/05/22 15:36:15;;;;;;;6.45;4.28;;;23.00;96.70;;;;;;4949958;28;20464;-71
2023/05/22 15:38:44;;;;;;;5.75;3.97;;;23.00;96.70;;;;;;4971217;28;20054;-72
2023/05/22 15:41:13;;;;;;;5.88;4.68;;;22.90;96.70;;;;;;4954086;28;20484;-71
2023/05/22 15:43:41;;;;;;;4.68;4.28;;;22.80;96.70;;;;;;4975695;28;20066;-71
2023/05/22 15:46:11;;;;;;;4.70;4.20;;;22.70;96.70;;;;;;4981652;28;20050;-71
2023/05/22 15:48:39;;;;;;;4.80;3.50;;;22.60;96.70;;;;;;4977358;28;20112;-72
2023/05/22 15:51:08;;;;;;;3.88;3.50;;;22.40;96.70;;;;;;4967581;28;20098;-71
2023/05/22 15:53:37;;;;;;;5.32;3.10;;;22.20;96.70;;;;;;4960542;28;20493;-71
2023/05/22 15:56:08;;;;;;;5.80;3.45;;;22.20;96.70;;;;;;4936046;28;20046;-71
2023/05/22 15:58:37;;;;;;;4.57;3.92;;;22.30;96.70;;;;;;4970648;28;20038;-71
2023/05/22 16:01:06;;;;;;;6.13;3.83;;;22.30;96.70;;;;;;4982551;28;20045;-71
2023/05/22 16:03:35;;;;;;;4.90;3.72;;;22.40;96.70;;;;;;4983908;28;20154;-71
2023/05/22 16:06:03;;;;;;;5.88;3.40;;;22.50;96.70;;;;;;4980359;28;20054;-71
2023/05/22 16:08:32;;;;;;;5.53;3.65;;;22.60;96.70;;;;;;4982567;28;20400;-71
2023/05/22 16:11:00;;;;;;;7.05;3.70;;;22.60;96.70;;;;;;4935484;28;20783;-71
2023/05/22 16:13:31;;;;;;;5.65;3.70;;;22.60;96.70;;;;;;4980751;28;20165;-71
2023/05/22 16:16:02;;;;;;;5.15;4.15;;;22.60;96.70;;;;;;4973945;28;20069;-71
2023/05/22 16:18:31;;;;;;;7.03;4.32;;;22.60;96.70;;;;;;4975367;28;20057;-71
2023/05/22 16:20:59;;;;;;;7.68;4.32;;;22.60;96.70;;;;;;4948422;28;20133;-71
2023/05/22 16:23:27;;;;;;;8.18;4.32;;;22.60;96.70;;;;;;4971714;28;20141;-71
2023/05/22 16:25:55;;;;;;;7.93;4.13;;;22.50;96.70;;;;;;4977744;28;20046;-71
2023/05/22 16:28:23;;;;;;;6.85;4.25;;;22.40;96.70;;;;;;4966397;28;20102;-72
2023/05/22 16:30:53;;;;;;;6.22;4.50;;;22.40;96.70;;;;;;4944036;28;20050;-71
2023/05/22 16:33:21;;;;;;;6.35;4.80;;;22.40;96.70;;;;;;4963955;28;20259;-71
2023/05/22 16:35:49;;;;;;;5.70;4.30;;;22.40;96.70;;;;;;4970955;28;20667;-72